Time;durP1;ratioP1;P1;durP2;ratioP2;P2;SDS_P1;SDS_P2;PMS_P1;PMS_P2;Temp;Humidity;BMP_temperature;BMP_pressure;BME280_temperature;BME280_humidity;BME280_pressure;Samples;Min_cycle;Max_cycle;Signal;HPM_P1;HPM_P2
2021/01/26 00:01:37;;;;;;;;;;;;;;;-0.37;74.92;96049.36;1807735;77;26449;-82
2021/01/26 00:04:04;;;;;;;;;;;;;;;-0.40;74.87;96049.70;1809996;77;25721;-82
2021/01/26 00:06:31;;;;;;;;;;;;;;;-0.41;74.78;96058.66;1799031;77;27492;-83
2021/01/26 00:08:58;;;;;;;;;;;;;;;-0.48;74.69;96068.29;1798996;77;26125;-82
2021/01/26 00:11:25;;;;;;;;;;;;;;;-0.51;74.68;96071.31;1811653;77;25686;-83
2021/01/26 00:13:52;;;;;;;;;;;;;;;-0.50;74.64;96075.62;1821551;76;25775;-82
2021/01/26 00:16:19;;;;;;;;;;;;;;;-0.45;74.66;96083.03;1845171;77;25826;-82
2021/01/26 00:18:46;;;;;;;;;;;;;;;-0.43;74.59;96076.55;1838669;77;27569;-82
2021/01/26 00:21:13;;;;;;;;;;;;;;;-0.46;74.45;96090.16;1798862;77;25706;-83
2021/01/26 00:23:41;;;;;;;;;;;;;;;-0.45;74.48;96088.33;1801878;77;25705;-82
2021/01/26 00:26:08;;;;;;;;;;;;;;;-0.45;74.46;96090.98;1813475;77;25714;-82
2021/01/26 00:28:35;;;;;;;;;;;;;;;-0.42;74.44;96095.44;1799885;77;25715;-82
2021/01/26 00:31:02;;;;;;;;;;;;;;;-0.38;74.39;96097.25;1815630;77;28695;-83
2021/01/26 00:33:29;;;;;;;;;;;;;;;-0.39;74.29;96099.08;1799134;77;25672;-83
2021/01/26 00:35:56;;;;;;;;;;;;;;;-0.44;74.23;96096.11;1841535;76;25637;-82
2021/01/26 00:38:23;;;;;;;;;;;;;;;-0.49;74.17;96098.98;1801584;77;25877;-82
2021/01/26 00:40:50;;;;;;;;;;;;;;;-0.57;74.20;96103.80;1834055;77;25756;-83
2021/01/26 00:43:17;;;;;;;;;;;;;;;-0.66;74.17;96098.23;1803688;77;27582;-82
2021/01/26 00:45:44;;;;;;;;;;;;;;;-0.65;74.29;96106.51;1792724;77;25378;-82
2021/01/26 00:48:11;;;;;;;;;;;;;;;-0.67;74.21;96108.50;1804829;77;25780;-83
2021/01/26 00:50:38;;;;;;;;;;;;;;;-0.67;74.25;96109.83;1807397;77;26595;-82
2021/01/26 00:53:05;;;;;;;;;;;;;;;-0.64;74.24;96112.64;1789897;77;25803;-82
2021/01/26 00:55:32;;;;;;;;;;;;;;;-0.60;74.26;96105.97;1824709;77;28331;-82
2021/01/26 00:57:59;;;;;;;;;;;;;;;-0.64;74.19;96112.14;1812351;77;25843;-82
2021/01/26 01:00:33;;;;;;;;;;;;;;;-0.67;74.17;96111.65;1789729;77;25731;-82
2021/01/26 01:03:00;;;;;;;;;;;;;;;-0.63;74.25;96111.14;1807484;77;25833;-82
2021/01/26 01:05:27;;;;;;;;;;;;;;;-0.59;74.30;96121.70;1802643;77;25727;-83
2021/01/26 01:07:55;;;;;;;;;;;;;;;-0.61;74.25;96122.40;1794220;77;28522;-83
2021/01/26 01:10:25;;;;;;;;;;;;;;;-0.67;74.29;96129.70;1792310;77;26154;-82
2021/01/26 01:12:53;;;;;;;;;;;;;;;-0.63;74.39;96128.37;1812044;77;25864;-83
2021/01/26 01:15:21;;;;;;;;;;;;;;;-0.55;74.44;96128.31;1811843;77;25933;-82
2021/01/26 01:17:48;;;;;;;;;;;;;;;;;;1812029;77;25852;-82
2021/01/26 01:20:17;;;;;;;;;;;;;;;-0.52;74.28;96133.28;1812052;77;27528;-82
2021/01/26 01:22:44;;;;;;;;;;;;;;;-0.53;74.42;96132.95;1811996;77;25726;-82
2021/01/26 01:25:12;;;;;;;;;;;;;;;-0.55;74.40;96123.52;1815477;77;26312;-82
2021/01/26 01:27:39;;;;;;;;;;;;;;;-0.56;74.42;96127.16;1812323;77;25778;-82
2021/01/26 01:30:08;;;;;;;;;;;;;;;-0.58;74.52;96131.30;1812055;77;25694;-82
2021/01/26 01:32:35;;;;;;;;;;;;;;;-0.54;74.59;96135.77;1811971;77;28368;-82
2021/01/26 01:35:02;;;;;;;;;;;;;;;-0.50;74.59;96128.63;1812001;77;25710;-82
2021/01/26 01:37:29;;;;;;;;;;;;;;;-0.44;74.59;96128.42;1814861;77;25741;-82
2021/01/26 01:39:56;;;;;;;;;;;;;;;-0.39;74.59;96132.72;1832103;77;25784;-82
2021/01/26 01:42:23;;;;;;;;;;;;;;;-0.38;74.56;96129.06;1811959;77;25860;-82
2021/01/26 01:44:50;;;;;;;;;;;;;;;-0.43;74.53;96130.91;1845170;77;27554;-83
2021/01/26 01:47:33;;;;;;;;;;;;;;;-0.45;74.56;96138.20;1824453;77;25719;-82
2021/01/26 01:50:03;;;;;;;;;;;;;;;-0.42;74.68;96137.86;1810293;77;25851;-82
2021/01/26 01:52:33;;;;;;;;;;;;;;;-0.36;74.75;96134.50;1812013;77;26076;-82
2021/01/26 01:55:09;;;;;;;;;;;;;;;-0.32;74.69;96136.80;1812109;77;25887;-82
2021/01/26 01:57:40;;;;;;;;;;;;;;;-0.36;74.67;96136.32;1815128;77;27487;-82
2021/01/26 02:00:11;;;;;;;;;;;;;;;-0.47;74.62;96133.56;1815611;77;25726;-82
2021/01/26 02:02:44;;;;;;;;;;;;;;;-0.48;74.70;96139.03;1812363;77;26055;-82
2021/01/26 02:05:13;;;;;;;;;;;;;;;-0.45;74.83;96138.70;1825608;77;25864;-82
2021/01/26 02:07:40;;;;;;;;;;;;;;;-0.43;74.90;96142.83;1825420;77;25678;-82
2021/01/26 02:10:08;;;;;;;;;;;;;;;-0.45;74.83;96135.55;1813407;77;28479;-82
2021/01/26 02:12:35;;;;;;;;;;;;;;;-0.48;74.91;96139.03;1812201;77;26359;-82
2021/01/26 02:15:04;;;;;;;;;;;;;;;-0.57;74.79;96142.23;1812350;77;25772;-82
2021/01/26 02:17:40;;;;;;;;;;;;;;;-0.60;74.93;96147.88;1812158;77;26359;-82
2021/01/26 02:20:26;;;;;;;;;;;;;;;-0.61;75.01;96148.08;1791094;77;26243;-82
2021/01/26 02:22:57;;;;;;;;;;;;;;;-0.56;75.06;96149.19;1810987;77;27707;-82
2021/01/26 02:25:50;;;;;;;;;;;;;;;-0.49;75.13;96148.02;1811040;77;26122;-82
2021/01/26 02:28:35;;;;;;;;;;;;;;;-0.42;75.11;96154.27;1812269;77;25825;-82
2021/01/26 02:31:06;;;;;;;;;;;;;;;-0.43;75.00;96153.44;1819881;77;26334;-82
2021/01/26 02:33:48;;;;;;;;;;;;;;;-0.47;74.97;96155.27;1821538;77;25717;-82
2021/01/26 02:36:54;;;;;;;;;;;;;;;-0.49;74.88;96152.83;1809748;77;27738;-82
2021/01/26 02:39:37;;;;;;;;;;;;;;;-0.51;74.88;96151.34;1842238;77;26324;-81
2021/01/26 02:42:13;;;;;;;;;;;;;;;-0.56;74.92;96158.47;1817979;77;25890;-82
2021/01/26 02:45:08;;;;;;;;;;;;;;;-0.55;74.97;96149.52;1813188;77;25719;-82
2021/01/26 02:47:45;;;;;;;;;;;;;;;-0.70;74.79;96154.39;1833820;77;25830;-81
2021/01/26 02:50:31;;;;;;;;;;;;;;;-0.68;75.10;96154.55;1825440;77;27480;-82
2021/01/26 02:53:16;;;;;;;;;;;;;;;-0.64;75.10;96161.66;1799593;77;25990;-80
2021/01/26 02:55:46;;;;;;;;;;;;;;;-0.72;74.95;96158.53;1839384;77;25680;-80
2021/01/26 02:58:34;;;;;;;;;;;;;;;-0.74;74.99;96161.38;1834719;77;25857;-80
2021/01/26 03:01:02;;;;;;;;;;;;;;;-0.72;74.98;96159.36;1802955;77;25714;-79
2021/01/26 03:03:41;;;;;;;;;;;;;;;-0.79;74.85;96162.88;1826231;77;28518;-79
2021/01/26 03:06:11;;;;;;;;;;;;;;;-0.74;74.98;96165.35;1838350;77;26187;-80
2021/01/26 03:09:08;;;;;;;;;;;;;;;-0.71;74.92;96173.44;1838442;77;25753;-80
2021/01/26 03:11:49;;;;;;;;;;;;;;;-0.75;74.85;96172.97;1815595;77;26517;-80
2021/01/26 03:14:36;;;;;;;;;;;;;;;-0.83;74.71;96173.48;1828898;77;26394;-80
2021/01/26 03:17:07;;;;;;;;;;;;;;;-0.85;74.75;96174.17;1815895;76;27409;-80
2021/01/26 03:19:35;;;;;;;;;;;;;;;-0.79;74.75;96186.72;1844696;77;25756;-80
2021/01/26 03:22:04;;;;;;;;;;;;;;;-0.74;74.59;96187.05;1834912;77;25773;-80
2021/01/26 03:24:35;;;;;;;;;;;;;;;-0.70;74.37;96183.03;1838322;77;25791;-80
2021/01/26 03:27:06;;;;;;;;;;;;;;;-0.70;74.27;96182.21;1811085;77;25961;-80
2021/01/26 03:29:35;;;;;;;;;;;;;;;-0.78;74.29;96184.41;1801883;77;27504;-80
2021/01/26 03:32:06;;;;;;;;;;;;;;;-0.84;74.39;96187.22;1801866;77;26199;-79
2021/01/26 03:34:34;;;;;;;;;;;;;;;-0.88;74.61;96186.42;1802060;77;25784;-80
2021/01/26 03:37:01;;;;;;;;;;;;;;;-0.84;74.80;96191.69;1805815;77;26268;-81
2021/01/26 03:39:28;;;;;;;;;;;;;;;-0.87;74.78;96190.73;1798505;77;26261;-81
2021/01/26 03:41:55;;;;;;;;;;;;;;;-0.91;74.79;96186.76;1789942;77;27470;-81
2021/01/26 03:44:22;;;;;;;;;;;;;;;-0.95;74.83;96198.18;1812986;77;25820;-81
2021/01/26 03:46:57;;;;;;;;;;;;;;;-1.02;74.83;96188.44;1840084;77;25757;-81
2021/01/26 03:49:37;;;;;;;;;;;;;;;-1.07;74.87;96190.77;1801767;77;25799;-81
2021/01/26 03:52:23;;;;;;;;;;;;;;;-1.09;74.89;96191.75;1841635;77;25764;-80
2021/01/26 03:55:00;;;;;;;;;;;;;;;-1.09;74.87;96199.70;1840850;77;27495;-80
2021/01/26 03:57:45;;;;;;;;;;;;;;;-1.07;74.90;96198.20;1842742;77;25812;-80
2021/01/26 04:00:24;;;;;;;;;;;;;;;-1.09;74.80;96202.34;1838491;77;25716;-80
2021/01/26 04:03:04;;;;;;;;;;;;;;;-1.12;74.82;96196.58;1814438;77;25738;-81
2021/01/26 04:05:51;;;;;;;;;;;;;;;-1.09;74.83;96204.99;1828878;77;25808;-80
2021/01/26 04:08:21;;;;;;;;;;;;;;;-1.07;74.67;96207.97;1828048;77;27582;-81
2021/01/26 04:11:09;;;;;;;;;;;;;;;-1.17;74.51;96198.40;1845344;77;26537;-80
2021/01/26 04:13:46;;;;;;;;;;;;;;;-1.25;74.49;96204.21;1841675;77;25767;-80
2021/01/26 04:16:14;;;;;;;;;;;;;;;-1.28;74.54;96211.98;1813687;77;25516;-81
2021/01/26 04:18:42;;;;;;;;;;;;;;;-1.27;74.59;96210.99;1845486;77;25817;-80
2021/01/26 04:21:10;;;;;;;;;;;;;;;-1.25;74.56;96216.12;1837839;77;27548;-80
2021/01/26 04:23:39;;;;;;;;;;;;;;;-1.29;74.48;96212.15;1796848;77;25742;-80
2021/01/26 04:26:09;;;;;;;;;;;;;;;-1.36;74.45;96220.44;1789997;77;25956;-80
2021/01/26 04:28:44;;;;;;;;;;;;;;;-1.45;74.30;96213.01;1790318;77;26738;-80
2021/01/26 04:31:13;;;;;;;;;;;;;;;-1.58;74.35;96215.32;1843934;77;25823;-80
2021/01/26 04:33:41;;;;;;;;;;;;;;;-1.60;74.51;96212.01;1845505;77;27476;-81
2021/01/26 04:36:09;;;;;;;;;;;;;;;-1.57;74.57;96222.27;1831203;77;25750;-80
2021/01/26 04:38:36;;;;;;;;;;;;;;;-1.55;74.56;96222.91;1789970;77;25684;-81
2021/01/26 04:41:28;;;;;;;;;;;;;;;-1.51;74.57;96225.56;1794534;77;25734;-80
2021/01/26 04:44:01;;;;;;;;;;;;;;;-1.51;74.53;96225.56;1798522;77;25467;-81
2021/01/26 04:46:35;;;;;;;;;;;;;;;-1.44;74.62;96229.19;1804190;77;27564;-80
2021/01/26 04:49:24;;;;;;;;;;;;;;;-1.45;74.63;96225.72;1799880;77;25796;-80
2021/01/26 04:51:57;;;;;;;;;;;;;;;-1.39;74.61;96237.48;1813053;77;25721;-80
2021/01/26 04:57:33;;;;;;;;;;;;;;;-1.13;74.70;96235.48;1846312;77;25713;-80
2021/01/26 05:00:10;;;;;;;;;;;;;;;-1.18;74.56;96244.41;1832177;78;25845;-80
2021/01/26 05:02:49;;;;;;;;;;;;;;;-1.21;74.60;96240.76;1824770;78;27510;-80
2021/01/26 05:05:20;;;;;;;;;;;;;;;-1.27;74.54;96246.73;1831107;78;26199;-80
2021/01/26 05:07:52;;;;;;;;;;;;;;;-1.31;74.64;96237.46;1825211;78;25779;-80
2021/01/26 05:10:32;;;;;;;;;;;;;;;-1.32;74.72;96242.42;1811958;78;25743;-80
2021/01/26 05:13:08;;;;;;;;;;;;;;;-1.37;74.75;96239.47;1834718;78;25706;-80
2021/01/26 05:15:38;;;;;;;;;;;;;;;-1.38;74.81;96241.78;1775812;79;27502;-80
2021/01/26 05:18:10;;;;;;;;;;;;;;;-1.30;74.96;96244.41;1831310;78;25821;-80
2021/01/26 05:20:44;;;;;;;;;;;;;;;-1.19;75.03;96246.72;1832793;78;25788;-80
2021/01/26 05:23:17;;;;;;;;;;;;;;;-1.17;74.85;96242.59;1826178;78;25727;-80
2021/01/26 05:25:45;;;;;;;;;;;;;;;-1.11;74.86;96252.03;1804374;78;25982;-80
2021/01/26 05:28:12;;;;;;;;;;;;;;;-1.11;74.77;96253.85;1825277;78;26696;-80
2021/01/26 05:30:39;;;;;;;;;;;;;;;-1.13;74.78;96250.05;1825321;78;25757;-79
2021/01/26 05:33:14;;;;;;;;;;;;;;;-1.11;74.80;96256.00;1825281;78;25775;-80
2021/01/26 05:35:44;;;;;;;;;;;;;;;-1.15;74.75;96255.17;1809356;78;27036;-80
2021/01/26 05:38:11;;;;;;;;;;;;;;;-1.23;74.76;96253.36;1817660;78;25756;-80
2021/01/26 05:40:40;;;;;;;;;;;;;;;-1.21;74.84;96261.14;1825390;78;27472;-80
2021/01/26 05:43:11;;;;;;;;;;;;;;;-1.23;74.70;96265.28;1825269;78;26114;-80
2021/01/26 05:45:44;;;;;;;;;;;;;;;-1.19;74.74;96261.28;1804154;78;26315;-80
2021/01/26 05:48:16;;;;;;;;;;;;;;;-1.17;74.64;96259.30;1802980;78;25663;-80
2021/01/26 05:50:45;;;;;;;;;;;;;;;-1.14;74.59;96262.95;1823378;78;25784;-80
2021/01/26 05:53:18;;;;;;;;;;;;;;;-1.11;74.46;96261.80;1825379;78;27693;-79
2021/01/26 05:55:57;;;;;;;;;;;;;;;-1.10;74.31;96272.23;1820217;78;26131;-81
2021/01/26 05:58:17;;;;;;;;;;;;;;;-1.10;74.14;96273.55;1802099;78;26308;-82
2021/01/26 06:00:46;;;;;;;;;;;;;;;-1.16;74.02;96279.50;1794608;78;25788;-81
2021/01/26 06:03:21;;;;;;;;;;;;;;;-1.13;74.06;96278.34;1793153;78;25354;-81
2021/01/26 06:06:04;;;;;;;;;;;;;;;-1.11;74.04;96282.98;1822152;78;28485;-82
2021/01/26 06:08:32;;;;;;;;;;;;;;;-1.12;74.00;96287.45;1828985;78;25744;-82
2021/01/26 06:11:00;;;;;;;;;;;;;;;-1.11;74.02;96289.11;1823490;78;25891;-81
2021/01/26 06:13:29;;;;;;;;;;;;;;;-1.07;74.04;96292.23;1773937;78;26097;-81
2021/01/26 06:16:14;;;;;;;;;;;;;;;-1.07;74.00;96283.45;1814550;78;25909;-81
2021/01/26 06:21:26;;;;;;;;;;;;;;;-1.01;73.98;96297.37;1877541;75;25684;-80
2021/01/26 06:23:53;;;;;;;;;;;;;;;-1.05;73.96;96307.95;1815678;77;25760;-80
2021/01/26 06:26:20;;;;;;;;;;;;;;;-1.07;73.96;96309.94;1814439;77;27478;-79
2021/01/26 06:29:03;;;;;;;;;;;;;;;-1.06;74.05;96308.95;1836627;77;25937;-80
2021/01/26 06:31:49;;;;;;;;;;;;;;;-1.05;74.01;96311.93;1797957;77;25810;-80
2021/01/26 06:34:31;;;;;;;;;;;;;;;-1.04;74.00;96312.27;1844853;77;25832;-80
2021/01/26 06:37:08;;;;;;;;;;;;;;;-1.01;74.06;96312.77;1849669;77;25923;-80
2021/01/26 06:39:45;;;;;;;;;;;;;;;-0.99;74.04;96311.28;1836891;77;27501;-80
2021/01/26 06:42:38;;;;;;;;;;;;;;;-1.06;74.09;96323.52;1821668;77;25681;-80
2021/01/26 06:45:25;;;;;;;;;;;;;;;-1.05;74.28;96326.50;1822115;77;25722;-80
2021/01/26 06:48:05;;;;;;;;;;;;;;;-1.05;74.38;96329.15;1818047;77;25805;-79
2021/01/26 06:50:51;;;;;;;;;;;;;;;-1.04;74.60;96330.80;1834484;77;25844;-79
2021/01/26 06:53:38;;;;;;;;;;;;;;;-0.95;74.79;96327.98;1821752;77;26399;-81
2021/01/26 06:56:41;;;;;;;;;;;;;;;-0.89;74.86;96336.61;1822047;77;26617;-81
2021/01/26 06:59:40;;;;;;;;;;;;;;;-0.83;74.90;96340.39;1822051;77;25682;-81
2021/01/26 07:02:17;;;;;;;;;;;;;;;-0.82;74.83;96346.02;1842124;77;25765;-80
2021/01/26 07:05:07;;;;;;;;;;;;;;;-0.87;74.66;96347.04;1823621;77;25836;-80
2021/01/26 07:07:44;;;;;;;;;;;;;;;-0.95;74.53;96346.52;1829500;77;27509;-80
2021/01/26 07:10:27;;;;;;;;;;;;;;;-0.96;74.58;96346.69;1825964;77;26178;-80
2021/01/26 07:13:04;;;;;;;;;;;;;;;-1.05;74.47;96348.52;1822081;77;25761;-80
2021/01/26 07:15:47;;;;;;;;;;;;;;;-1.05;74.30;96347.69;1821192;77;26316;-80
2021/01/26 07:18:23;;;;;;;;;;;;;;;-1.06;74.10;96355.30;1825075;77;25733;-80
2021/01/26 07:20:54;;;;;;;;;;;;;;;-1.11;74.12;96351.34;1826112;76;27549;-80
2021/01/26 07:23:28;;;;;;;;;;;;;;;-1.16;73.93;96354.97;1840329;76;25836;-80
2021/01/26 07:26:01;;;;;;;;;;;;;;;-1.10;74.05;96360.13;1831074;75;25814;-81
2021/01/26 07:28:38;;;;;;;;;;;;;;;-1.11;73.85;96361.94;1829944;76;25791;-80
2021/01/26 07:31:11;;;;;;;;;;;;;;;-1.15;73.77;96363.74;1831200;76;25811;-79
2021/01/26 07:33:51;;;;;;;;;;;;;;;-1.09;73.84;96368.40;1828440;77;28469;-80
2021/01/26 07:36:33;;;;;;;;;;;;;;;-1.07;73.77;96370.36;1838954;75;26050;-80
2021/01/26 07:39:19;;;;;;;;;;;;;;;-1.03;73.73;96374.84;1827172;77;25789;-80
2021/01/26 07:41:58;;;;;;;;;;;;;;;-0.98;73.63;96372.55;1828879;77;26439;-80
2021/01/26 07:44:41;;;;;;;;;;;;;;;-0.95;73.53;96370.86;1829996;75;25340;-80
2021/01/26 07:47:27;;;;;;;;;;;;;;;-0.91;73.56;96370.38;1799859;78;28264;-81
2021/01/26 07:50:06;;;;;;;;;;;;;;;-0.96;73.48;96370.53;1788817;78;26028;-81
2021/01/26 07:52:34;;;;;;;;;;;;;;;-0.99;73.57;96376.18;1700422;84;25939;-80
2021/01/26 07:55:14;;;;;;;;;;;;;;;-0.96;73.63;96379.30;1699064;84;25756;-80
2021/01/26 07:57:48;;;;;;;;;;;;;;;-0.86;73.67;96383.14;1700488;83;25825;-80
2021/01/26 08:00:17;;;;;;;;;;;;;;;-0.82;73.62;96383.13;1754517;81;26429;-80
2021/01/26 08:02:48;;;;;;;;;;;;;;;-0.76;73.64;96386.45;1721095;83;26618;-80
2021/01/26 08:05:17;;;;;;;;;;;;;;;-0.67;73.65;96390.74;1699034;83;25801;-80
2021/01/26 08:07:45;;;;;;;;;;;;;;;-0.63;73.63;96393.90;1694163;83;26361;-80
2021/01/26 08:12:57;;;;;;;;;;;;;;;-0.60;73.42;96394.87;1847922;76;25575;-81
2021/01/26 08:15:33;;;;;;;;;;;;;;;-0.67;73.33;96396.05;1790333;78;25717;-81
2021/01/26 08:18:19;;;;;;;;;;;;;;;-0.62;73.46;96396.88;1815292;78;27673;-81
2021/01/26 08:20:46;;;;;;;;;;;;;;;-0.57;73.39;96395.37;1744968;82;25781;-81
2021/01/26 08:23:18;;;;;;;;;;;;;;;-0.48;73.36;96398.34;1744955;80;25797;-82
2021/01/26 08:25:47;;;;;;;;;;;;;;;-0.38;73.33;96407.47;1746061;81;25814;-82
2021/01/26 08:31:02;;;;;;;;;;;;;;;-0.37;72.98;96405.15;1841151;76;26187;-80
2021/01/26 08:33:31;;;;;;;;;;;;;;;-0.41;72.94;96403.32;1792709;78;25698;-80
2021/01/26 08:36:11;;;;;;;;;;;;;;;-0.43;72.80;96410.61;1800455;78;27504;-79
2021/01/26 08:39:03;;;;;;;;;;;;;;;-0.37;72.86;96412.61;1801916;77;26617;-80
2021/01/26 08:41:42;;;;;;;;;;;;;;;-0.28;72.63;96417.89;1732462;82;25387;-80
2021/01/26 08:44:19;;;;;;;;;;;;;;;-0.28;72.42;96412.58;1785833;78;26055;-79
2021/01/26 08:46:50;;;;;;;;;;;;;;;-0.19;72.59;96412.39;1818882;78;25304;-79
2021/01/26 08:49:24;;;;;;;;;;;;;;;-0.15;72.55;96417.70;1796534;77;27372;-80
2021/01/26 08:51:52;;;;;;;;;;;;;;;-0.19;72.40;96414.22;1798809;78;26041;-80
2021/01/26 08:54:42;;;;;;;;;;;;;;;-0.16;72.55;96422.67;1793933;78;25725;-82
2021/01/26 08:57:31;;;;;;;;;;;;;;;-0.01;72.60;96430.28;1788881;78;26049;-80
2021/01/26 09:00:01;;;;;;;;;;;;;;;0.11;72.34;96433.89;1805668;78;25806;-80
2021/01/26 09:02:37;;;;;;;;;;;;;;;0.12;72.17;96433.70;1801420;77;28365;-80
2021/01/26 09:05:06;;;;;;;;;;;;;;;0.11;71.97;96437.38;1799933;78;25689;-80
2021/01/26 09:07:51;;;;;;;;;;;;;;;0.25;71.89;96436.65;1802145;78;25805;-80
2021/01/26 09:10:31;;;;;;;;;;;;;;;0.37;71.83;96437.11;1820452;78;25761;-80
2021/01/26 09:13:08;;;;;;;;;;;;;;;0.43;71.46;96438.26;1810870;78;25899;-81
2021/01/26 09:15:36;;;;;;;;;;;;;;;0.68;71.58;96438.48;1819121;78;27762;-81
2021/01/26 09:18:03;;;;;;;;;;;;;;;0.92;71.40;96442.34;1789718;78;26113;-81
2021/01/26 09:20:32;;;;;;;;;;;;;;;0.89;70.87;96445.34;1784674;78;25827;-80
2021/01/26 09:23:02;;;;;;;;;;;;;;;0.85;70.58;96441.37;1781003;78;25815;-80
2021/01/26 09:25:45;;;;;;;;;;;;;;;0.79;70.35;96440.75;1815184;77;25803;-81
2021/01/26 09:28:18;;;;;;;;;;;;;;;0.83;70.29;96446.55;1791653;78;28796;-81
2021/01/26 09:30:47;;;;;;;;;;;;;;;0.86;70.18;96445.68;1817486;78;26223;-80
2021/01/26 09:33:17;;;;;;;;;;;;;;;0.95;70.21;96447.31;1813743;78;25788;-81
2021/01/26 09:35:50;;;;;;;;;;;;;;;1.04;69.89;96448.91;1819048;78;26421;-80
2021/01/26 09:38:32;;;;;;;;;;;;;;;1.22;69.94;96449.95;1782792;78;26266;-80
2021/01/26 09:41:03;;;;;;;;;;;;;;;1.41;69.94;96442.02;1798093;78;27494;-82
2021/01/26 09:43:31;;;;;;;;;;;;;;;1.65;69.89;96444.98;1802180;78;25733;-81
2021/01/26 09:46:08;;;;;;;;;;;;;;;1.74;69.48;96446.06;1797707;78;25719;-82
2021/01/26 09:48:40;;;;;;;;;;;;;;;1.61;68.97;96447.67;1797580;78;25755;-82
2021/01/26 09:51:13;;;;;;;;;;;;;;;1.51;68.72;96447.09;1797136;78;26040;-81
2021/01/26 09:53:41;;;;;;;;;;;;;;;1.45;68.52;96452.61;1797785;78;27565;-81
2021/01/26 09:56:10;;;;;;;;;;;;;;;1.31;68.50;96456.89;1797582;78;26337;-81
2021/01/26 09:58:37;;;;;;;;;;;;;;;1.15;68.80;96456.16;1797568;78;25684;-81
2021/01/26 10:01:05;;;;;;;;;;;;;;;1.04;68.43;96458.22;1802083;78;26352;-82
2021/01/26 10:03:32;;;;;;;;;;;;;;;1.00;68.63;96459.55;1797851;78;25837;-83
2021/01/26 10:06:00;;;;;;;;;;;;;;;0.95;68.38;96457.95;1797117;78;27485;-82
2021/01/26 10:08:32;;;;;;;;;;;;;;;1.18;68.56;96466.45;1807378;78;25658;-82
2021/01/26 10:11:17;;;;;;;;;;;;;;;1.18;68.33;96465.12;1797985;78;25808;-82
2021/01/26 10:13:45;;;;;;;;;;;;;;;1.06;68.19;96461.53;1797524;78;25704;-81
2021/01/26 10:16:30;;;;;;;;;;;;;;;1.11;68.28;96464.14;1797704;78;25815;-82
2021/01/26 10:18:59;;;;;;;;;;;;;;;1.12;68.37;96460.48;1802874;78;28671;-82
2021/01/26 10:21:29;;;;;;;;;;;;;;;1.09;68.29;96466.47;1797452;78;26361;-81
2021/01/26 10:24:02;;;;;;;;;;;;;;;1.03;68.21;96471.17;1797674;78;25647;-82
2021/01/26 10:26:32;;;;;;;;;;;;;;;1.07;68.37;96469.83;1788722;78;25801;-82
2021/01/26 10:29:14;;;;;;;;;;;;;;;1.13;68.25;96466.13;1802002;78;25663;-82
2021/01/26 10:31:56;;;;;;;;;;;;;;;1.15;68.04;96466.79;1792649;78;29980;-84
2021/01/26 10:34:33;;;;;;;;;;;;;;;1.07;68.06;96471.16;1823645;77;26212;-82
2021/01/26 10:37:12;;;;;;;;;;;;;;;1.02;68.14;96474.83;1824192;77;25761;-80
2021/01/26 10:39:40;;;;;;;;;;;;;;;1.07;68.33;96472.48;1814678;77;25794;-83
2021/01/26 10:42:21;;;;;;;;;;;;;;;1.07;68.45;96475.15;1831127;77;25809;-81
2021/01/26 10:44:51;;;;;;;;;;;;;;;1.16;68.49;96473.77;1800353;78;27515;-83
2021/01/26 10:47:33;;;;;;;;;;;;;;;1.16;68.34;96467.95;1823484;77;26192;-81
2021/01/26 10:50:04;;;;;;;;;;;;;;;1.26;68.43;96464.55;1804209;78;25730;-83
2021/01/26 10:52:41;;;;;;;;;;;;;;;1.29;68.34;96472.69;1813917;78;26612;-82
2021/01/26 10:55:11;;;;;;;;;;;;;;;1.05;67.89;96469.17;1820743;77;26010;-82
2021/01/26 10:57:42;;;;;;;;;;;;;;;0.96;67.68;96470.23;1799348;77;27632;-81
2021/01/26 11:00:13;;;;;;;;;;;;;;;0.91;67.78;96467.25;1796179;78;25700;-82
2021/01/26 11:02:40;;;;;;;;;;;;;;;0.96;67.82;96464.09;1808754;77;25820;-82
2021/01/26 11:05:09;;;;;;;;;;;;;;;1.05;67.54;96469.17;1794197;77;26542;-83
2021/01/26 11:07:36;;;;;;;;;;;;;;;1.14;67.61;96465.13;1803367;77;25836;-82
2021/01/26 11:10:07;;;;;;;;;;;;;;;1.11;67.27;96466.30;1794585;77;28372;-83
2021/01/26 11:12:35;;;;;;;;;;;;;;;1.17;67.28;96463.46;1801555;77;26101;-79
2021/01/26 11:15:06;;;;;;;;;;;;;;;1.14;67.16;96475.77;1804133;77;25789;-81
2021/01/26 11:17:33;;;;;;;;;;;;;;;1.12;66.94;96465.80;1794938;78;25793;-83
2021/01/26 11:20:00;;;;;;;;;;;;;;;1.13;66.73;96462.97;1794013;78;25806;-82
2021/01/26 11:22:27;;;;;;;;;;;;;;;1.18;66.62;96466.45;1802166;77;28492;-82
2021/01/26 11:24:54;;;;;;;;;;;;;;;1.20;66.59;96466.60;1804166;78;25788;-83
2021/01/26 11:27:21;;;;;;;;;;;;;;;1.23;66.60;96469.39;1796025;77;25335;-81
2021/01/26 11:29:49;;;;;;;;;;;;;;;1.24;66.54;96469.71;1801143;78;25726;-83
2021/01/26 11:32:17;;;;;;;;;;;;;;;1.28;66.48;96476.34;1792006;78;26213;-82
2021/01/26 11:34:46;;;;;;;;;;;;;;;1.25;66.56;96484.66;1814171;78;27491;-83
2021/01/26 11:37:14;;;;;;;;;;;;;;;1.21;66.10;96475.41;1780081;78;25691;-81
2021/01/26 11:39:41;;;;;;;;;;;;;;;1.18;66.08;96473.92;1791675;78;25745;-81
2021/01/26 11:42:09;;;;;;;;;;;;;;;1.12;65.85;96465.80;1800283;78;25841;-82
2021/01/26 11:44:36;;;;;;;;;;;;;;;1.21;65.79;96467.43;1808288;78;25994;-82
2021/01/26 11:47:04;;;;;;;;;;;;;;;1.56;66.01;96466.84;1797691;78;27476;-83
2021/01/26 11:49:32;;;;;;;;;;;;;;;1.80;65.62;96463.98;1790644;78;25782;-82
2021/01/26 11:51:59;;;;;;;;;;;;;;;1.97;65.09;96461.98;1794744;78;25794;-82
2021/01/26 11:54:25;;;;;;;;;;;;;;;2.00;64.61;96464.30;1784793;78;25727;-83
2021/01/26 11:56:52;;;;;;;;;;;;;;;1.93;64.46;96470.53;1792044;78;25773;-83
2021/01/26 11:59:19;;;;;;;;;;;;;;;1.85;64.24;96465.26;1789215;78;27486;-83
2021/01/26 12:01:47;;;;;;;;;;;;;;;1.86;64.10;96474.90;1809101;78;26173;-82
2021/01/26 12:04:14;;;;;;;;;;;;;;;1.79;63.90;96473.47;1784928;78;25758;-83
2021/01/26 12:06:41;;;;;;;;;;;;;;;1.72;63.99;96468.02;1797802;78;25752;-84
2021/01/26 12:09:08;;;;;;;;;;;;;;;1.59;63.96;96474.45;1798993;78;25781;-83
2021/01/26 12:11:35;;;;;;;;;;;;;;;1.54;64.46;96470.18;1822295;77;27488;-81
2021/01/26 12:14:03;;;;;;;;;;;;;;;1.63;64.66;96473.09;1784035;78;26339;-83
2021/01/26 12:16:30;;;;;;;;;;;;;;;1.65;64.72;96472.92;1813081;78;25769;-83
2021/01/26 12:18:57;;;;;;;;;;;;;;;1.58;64.54;96467.47;1810386;78;26579;-83
2021/01/26 12:21:24;;;;;;;;;;;;;;;1.55;64.81;96471.84;1785006;78;26358;-83
2021/01/26 12:23:51;;;;;;;;;;;;;;;1.66;64.88;96472.75;1808118;78;28564;-82
2021/01/26 12:26:18;;;;;;;;;;;;;;;1.64;64.68;96473.92;1823460;78;26665;-81
2021/01/26 12:28:46;;;;;;;;;;;;;;;1.70;64.51;96467.38;1796201;78;25655;-82
2021/01/26 12:31:14;;;;;;;;;;;;;;;1.81;64.52;96465.61;1801885;77;25728;-82
2021/01/26 12:33:41;;;;;;;;;;;;;;;2.05;64.48;96476.54;1815639;78;25836;-82
2021/01/26 12:36:08;;;;;;;;;;;;;;;2.30;64.29;96472.30;1822649;77;27488;-82
2021/01/26 12:38:35;;;;;;;;;;;;;;;2.45;63.95;96467.31;1822426;78;26199;-82
2021/01/26 12:41:02;;;;;;;;;;;;;;;2.51;63.75;96467.92;1817573;77;25706;-82
2021/01/26 12:43:29;;;;;;;;;;;;;;;2.53;63.55;96468.58;1793084;78;25818;-81
2021/01/26 12:45:56;;;;;;;;;;;;;;;2.44;63.72;96465.66;1791102;78;25988;-81
2021/01/26 12:48:23;;;;;;;;;;;;;;;2.19;63.31;96472.25;1793956;78;28461;-82
2021/01/26 12:50:50;;;;;;;;;;;;;;;2.13;63.23;96465.83;1791418;78;25896;-82
2021/01/26 12:53:18;;;;;;;;;;;;;;;2.05;63.20;96470.42;1795920;78;25751;-82
2021/01/26 12:55:45;;;;;;;;;;;;;;;2.05;63.14;96463.77;1797745;78;25773;-83
2021/01/26 12:58:11;;;;;;;;;;;;;;;2.20;63.23;96461.92;1795995;78;25820;-83
2021/01/26 13:00:38;;;;;;;;;;;;;;;2.30;63.09;96465.14;1791581;78;27807;-82
2021/01/26 13:03:06;;;;;;;;;;;;;;;2.25;63.22;96462.22;1790992;78;25685;-82
2021/01/26 13:05:34;;;;;;;;;;;;;;;2.36;63.33;96467.09;1795296;78;25916;-83
2021/01/26 13:08:01;;;;;;;;;;;;;;;2.51;63.61;96467.92;1795881;78;25518;-83
2021/01/26 13:10:28;;;;;;;;;;;;;;;2.42;63.10;96465.52;1795858;78;26300;-83
2021/01/26 13:12:55;;;;;;;;;;;;;;;2.48;63.45;96468.79;1795555;78;27497;-82
2021/01/26 13:15:23;;;;;;;;;;;;;;;2.60;63.33;96472.65;1800734;78;26148;-82
2021/01/26 13:17:50;;;;;;;;;;;;;;;2.76;63.21;96468.47;1799657;78;25812;-82
2021/01/26 13:20:18;;;;;;;;;;;;;;;2.87;63.29;96469.33;1800528;78;25826;-82
2021/01/26 13:22:46;;;;;;;;;;;;;;;2.82;63.00;96468.21;1799986;78;25333;-83
2021/01/26 13:25:16;;;;;;;;;;;;;;;2.63;63.04;96467.46;1800471;78;27700;-82
2021/01/26 13:27:43;;;;;;;;;;;;;;;2.70;62.98;96467.86;1799920;78;25607;-83
2021/01/26 13:30:13;;;;;;;;;;;;;;;2.76;63.00;96459.64;1796073;78;25380;-82